Country
Station

 

Weather  for  Traverse City, Cherry Capital Airport  -  United States    United States

  
17 °C (63 °F)
    
 
 

Current METAR for Traverse City, Cherry Capital Airport is :

KTVC 021053Z 00000KT 10SM FEW070 FEW250 17/15 A3005 RMK AO2 SLP172 T01720150

 

This is a report for Traverse City, Cherry Capital Airport - United States.
 
The report was made one hour and 1 minutes ago, at 10:53 UTC .
The wind was calm.
 
The temperature was 17 °C (63 °F), with a dew-point at 15 °C (59 °F).
The atmospheric pressure was 1018 hPa (30.05 inHg).
The relative humidity was 88.0%.
 
There were a few clouds at a height of 2134 meters (7000 feet) and a few clouds at a height of 7620 meters (25000 feet).
 
The overall visibility was 16.1 kilometers (10.0 miles).
 

 
 
 
 

Country :   A   B   C   D   E   F   G   H   I   J   K   L   M   N   O   P   Q   R   S   T   U   V   W   Y   Z

 

Site Info  |  Disclaimer  |  Credits  |  Privacy
Contact us  |  Add to favorites
© 2013-2020 METARs - All rights reserved